createdAt,value
2023-02-09T00:01:31.127Z,2.65
2023-02-09T00:03:59.571Z,2.65
2023-02-09T00:06:30.003Z,2.69
2023-02-09T00:08:59.003Z,2.72
2023-02-09T00:11:48.421Z,2.71
2023-02-09T00:14:21.530Z,2.70
2023-02-09T00:16:49.481Z,2.75
2023-02-09T00:19:17.992Z,2.73
2023-02-09T00:21:45.135Z,2.71
2023-02-09T00:24:12.493Z,2.74
2023-02-09T00:26:39.767Z,2.73
2023-02-09T00:29:07.757Z,2.73
2023-02-09T00:31:35.279Z,2.73
2023-02-09T00:34:02.447Z,2.70
2023-02-09T00:36:29.891Z,2.62
2023-02-09T00:38:57.012Z,2.60
2023-02-09T00:41:42.499Z,2.62
2023-02-09T00:44:11.184Z,2.58
2023-02-09T00:46:38.246Z,2.61
2023-02-09T00:49:06.172Z,2.59
2023-02-09T00:51:33.212Z,2.59
2023-02-09T00:54:00.080Z,2.58
2023-02-09T00:56:27.270Z,2.57
2023-02-09T00:58:54.083Z,2.54
2023-02-09T01:01:21.019Z,2.57
2023-02-09T01:03:47.790Z,2.56
2023-02-09T01:06:14.606Z,2.56
2023-02-09T01:08:41.369Z,2.54
2023-02-09T01:11:10.756Z,2.54
2023-02-09T01:13:38.163Z,2.54
2023-02-09T01:16:14.394Z,2.54
2023-02-09T01:18:42.500Z,2.54
2023-02-09T01:21:17.124Z,2.53
2023-02-09T01:23:44.438Z,2.57
2023-02-09T01:26:12.823Z,2.56
2023-02-09T01:28:40.038Z,2.60
2023-02-09T01:31:20.157Z,2.62
2023-02-09T01:33:47.459Z,2.66
2023-02-09T01:36:14.542Z,2.63
2023-02-09T01:38:41.325Z,2.60
2023-02-09T01:41:08.097Z,2.65
2023-02-09T01:43:57.397Z,2.62
2023-02-09T01:46:30.346Z,2.69
2023-02-09T01:49:19.841Z,2.78
2023-02-09T01:51:56.433Z,2.84
2023-02-09T01:54:34.730Z,2.86
2023-02-09T01:57:10.540Z,2.89
2023-02-09T01:59:40.812Z,2.96
2023-02-09T02:02:09.013Z,2.97
2023-02-09T02:04:37.696Z,3.03
2023-02-09T02:07:25.414Z,3.02
2023-02-09T02:09:53.763Z,3.08
2023-02-09T02:12:21.086Z,3.16
2023-02-09T02:14:48.138Z,3.19
2023-02-09T02:17:33.162Z,3.22
2023-02-09T02:20:34.525Z,3.24
2023-02-09T02:23:39.759Z,3.29
2023-02-09T02:26:52.934Z,3.32
2023-02-09T02:29:57.072Z,3.34
2023-02-09T02:33:03.782Z,3.31
2023-02-09T02:35:38.342Z,3.37
2023-02-09T02:38:31.813Z,3.38
2023-02-09T02:41:22.046Z,3.32
2023-02-09T02:44:21.372Z,3.37
2023-02-09T02:46:57.761Z,3.40
2023-02-09T02:49:31.871Z,3.41
2023-02-09T02:52:04.757Z,3.45
2023-02-09T02:54:41.435Z,3.43
2023-02-09T02:57:18.582Z,3.44
2023-02-09T02:59:54.838Z,3.49
2023-02-09T03:02:38.929Z,3.49
2023-02-09T03:05:07.824Z,3.53
2023-02-09T03:07:34.674Z,3.57
2023-02-09T03:10:03.222Z,3.60
2023-02-09T03:13:14.993Z,3.54
2023-02-09T03:16:19.505Z,3.58
2023-02-09T03:18:53.422Z,3.62
2023-02-09T03:21:47.013Z,3.62
2023-02-09T03:24:57.115Z,3.68
2023-02-09T03:27:39.975Z,3.63
2023-02-09T03:30:10.794Z,3.69
2023-02-09T03:32:41.340Z,3.69
2023-02-09T03:35:13.070Z,3.71
2023-02-09T03:37:39.976Z,3.71
2023-02-09T03:40:07.707Z,3.75
2023-02-09T03:42:34.591Z,3.75
2023-02-09T03:45:01.914Z,3.77
2023-02-09T03:47:30.932Z,3.79
2023-02-09T03:49:58.478Z,3.76
2023-02-09T03:52:25.444Z,3.78
2023-02-09T03:54:52.187Z,3.78
2023-02-09T03:57:18.979Z,3.79
2023-02-09T03:59:45.777Z,3.81
2023-02-09T04:02:13.147Z,3.78
2023-02-09T04:04:40.078Z,3.81
2023-02-09T04:07:07.457Z,3.82
2023-02-09T04:09:34.430Z,3.82
2023-02-09T04:12:01.213Z,3.84
2023-02-09T04:14:28.303Z,3.84
2023-02-09T04:16:55.073Z,3.82
2023-02-09T04:19:22.045Z,3.86
2023-02-09T04:21:48.837Z,3.84
2023-02-09T04:24:15.622Z,3.87
2023-02-09T04:26:42.463Z,3.87
2023-02-09T04:29:09.642Z,3.91
2023-02-09T04:31:36.472Z,3.90
2023-02-09T04:34:03.384Z,3.91
2023-02-09T04:36:30.724Z,3.92
2023-02-09T04:38:57.670Z,3.93
2023-02-09T04:41:24.576Z,3.98
2023-02-09T04:43:51.532Z,3.96
2023-02-09T04:46:19.034Z,3.96
2023-02-09T04:48:46.503Z,3.98
2023-02-09T04:51:13.769Z,3.99
2023-02-09T04:53:41.244Z,3.99
2023-02-09T04:56:08.400Z,3.99
2023-02-09T04:58:53.736Z,4.00
2023-02-09T05:01:22.929Z,4.02
2023-02-09T05:03:50.078Z,4.04
2023-02-09T05:06:17.240Z,4.07
2023-02-09T05:08:44.612Z,4.08
2023-02-09T05:11:12.218Z,4.08
2023-02-09T05:13:39.497Z,4.13
2023-02-09T05:16:09.021Z,4.12
2023-02-09T05:18:36.823Z,4.13
2023-02-09T05:21:03.850Z,4.15
2023-02-09T05:23:30.972Z,4.13
2023-02-09T05:25:58.137Z,4.19
2023-02-09T05:28:25.740Z,4.20
2023-02-09T05:30:54.140Z,4.21
2023-02-09T05:33:26.033Z,4.20
2023-02-09T05:35:55.883Z,4.21
2023-02-09T05:38:23.105Z,4.21
2023-02-09T05:40:50.556Z,4.22
2023-02-09T05:43:18.529Z,4.23
2023-02-09T05:45:46.568Z,4.22
2023-02-09T05:48:13.927Z,4.21
2023-02-09T05:50:40.770Z,4.22
2023-02-09T05:53:08.957Z,4.18
2023-02-09T05:55:35.786Z,4.16
2023-02-09T05:58:02.713Z,4.11
2023-02-09T06:00:30.068Z,4.08
2023-02-09T06:02:57.352Z,4.02
2023-02-09T06:05:24.603Z,3.95
2023-02-09T06:07:51.487Z,3.87
2023-02-09T06:10:19.496Z,3.81
2023-02-09T06:12:46.350Z,3.73
2023-02-09T06:15:16.622Z,3.64
2023-02-09T06:17:46.589Z,3.53
2023-02-09T06:20:13.839Z,3.44
2023-02-09T06:22:40.693Z,3.32
2023-02-09T06:25:08.403Z,3.21
2023-02-09T06:27:36.220Z,3.12
2023-02-09T06:30:03.161Z,3.05
2023-02-09T06:32:30.016Z,2.99
2023-02-09T06:34:56.815Z,2.94
2023-02-09T06:37:23.763Z,2.87
2023-02-09T06:39:50.530Z,2.82
2023-02-09T06:42:17.317Z,2.75
2023-02-09T06:44:44.512Z,2.71
2023-02-09T06:47:11.313Z,2.64
2023-02-09T06:49:38.133Z,2.57
2023-02-09T06:52:06.001Z,2.48
2023-02-09T06:54:32.886Z,2.41
2023-02-09T06:56:59.838Z,2.32
2023-02-09T06:59:26.589Z,2.24
2023-02-09T07:01:55.001Z,2.15
2023-02-09T07:04:22.722Z,2.10
2023-02-09T07:06:49.583Z,2.04
2023-02-09T07:09:16.758Z,1.97
2023-02-09T07:11:44.075Z,1.91
2023-02-09T07:14:10.928Z,1.87
2023-02-09T07:16:38.217Z,1.81
2023-02-09T07:19:05.011Z,1.73
2023-02-09T07:21:31.868Z,1.68
2023-02-09T07:23:58.666Z,1.62
2023-02-09T07:26:25.529Z,1.55
2023-02-09T07:28:52.455Z,1.49
2023-02-09T07:31:19.737Z,1.45
2023-02-09T07:33:46.865Z,1.44
2023-02-09T07:36:16.392Z,1.43
2023-02-09T07:38:43.687Z,1.45
2023-02-09T07:41:25.305Z,1.45
2023-02-09T07:43:52.792Z,1.48
2023-02-09T07:46:22.341Z,1.48
2023-02-09T07:48:49.953Z,1.47
2023-02-09T07:51:25.848Z,1.44
2023-02-09T07:53:53.384Z,1.42
2023-02-09T07:56:20.202Z,1.45
2023-02-09T07:58:47.315Z,1.46
2023-02-09T08:01:14.716Z,1.49
2023-02-09T08:03:46.906Z,1.51
2023-02-09T08:06:41.021Z,1.50
2023-02-09T08:09:10.585Z,1.51
2023-02-09T08:11:56.765Z,1.49
2023-02-09T08:14:48.551Z,1.45
2023-02-09T08:17:24.539Z,1.47
2023-02-09T08:19:58.857Z,1.47
2023-02-09T08:22:31.415Z,1.44
2023-02-09T08:25:00.432Z,1.44
2023-02-09T08:27:28.025Z,1.44
2023-02-09T08:29:54.973Z,1.43
2023-02-09T08:32:22.109Z,1.46
2023-02-09T08:34:48.878Z,1.49
2023-02-09T08:37:15.726Z,1.52
2023-02-09T08:39:42.506Z,1.56
2023-02-09T08:42:09.262Z,1.60
2023-02-09T08:44:36.427Z,1.65
2023-02-09T08:47:03.497Z,1.71
2023-02-09T08:49:30.441Z,1.77
2023-02-09T08:51:57.257Z,1.82
2023-02-09T08:54:25.505Z,1.90
2023-02-09T08:56:52.443Z,1.99
2023-02-09T08:59:20.233Z,2.08
2023-02-09T09:01:47.012Z,2.18
2023-02-09T09:04:14.136Z,2.29
2023-02-09T09:06:40.932Z,2.36
2023-02-09T09:09:07.726Z,2.45
2023-02-09T09:11:34.953Z,2.51
2023-02-09T09:14:01.807Z,2.56
2023-02-09T09:16:28.745Z,2.62
2023-02-09T09:18:55.655Z,2.62
2023-02-09T09:21:22.495Z,2.70
2023-02-09T09:23:49.816Z,2.69
2023-02-09T09:26:17.951Z,2.78
2023-02-09T09:28:45.683Z,2.83
2023-02-09T09:31:16.705Z,2.94
2023-02-09T09:33:45.069Z,3.04
2023-02-09T09:36:14.908Z,3.16
2023-02-09T09:38:42.361Z,3.24
2023-02-09T09:41:24.683Z,3.30
2023-02-09T09:43:54.117Z,3.40
2023-02-09T09:46:44.705Z,3.47
2023-02-09T09:49:28.102Z,3.57
2023-02-09T09:52:09.704Z,3.68
2023-02-09T09:54:37.680Z,3.80
2023-02-09T09:57:20.837Z,3.87
2023-02-09T09:59:48.045Z,3.96
2023-02-09T10:02:26.650Z,4.05
2023-02-09T10:05:02.027Z,4.11
2023-02-09T10:07:34.618Z,4.18
2023-02-09T10:10:23.018Z,4.24
2023-02-09T10:12:53.058Z,4.28
2023-02-09T10:15:32.038Z,4.30
2023-02-09T10:18:00.030Z,4.40
2023-02-09T10:20:53.151Z,4.43
2023-02-09T10:23:26.880Z,4.47
2023-02-09T10:26:17.824Z,4.52
2023-02-09T10:28:50.631Z,4.55
2023-02-09T10:31:32.471Z,4.62
2023-02-09T10:34:08.329Z,4.64
2023-02-09T10:36:47.128Z,4.64
2023-02-09T10:39:23.004Z,4.68
2023-02-09T10:41:55.846Z,4.71
2023-02-09T10:44:35.172Z,4.76
2023-02-09T10:47:32.202Z,4.78
2023-02-09T10:50:17.262Z,4.79
2023-02-09T10:53:03.331Z,4.83
2023-02-09T10:55:41.949Z,4.88
2023-02-09T10:58:11.831Z,4.93
2023-02-09T11:01:12.924Z,4.97
2023-02-09T11:04:23.537Z,4.99
2023-02-09T11:07:00.527Z,5.00
2023-02-09T11:09:28.926Z,5.02
2023-02-09T11:11:57.953Z,5.06
2023-02-09T11:14:25.659Z,5.09
2023-02-09T11:17:13.661Z,5.11
2023-02-09T11:20:15.067Z,5.20
2023-02-09T11:22:55.321Z,5.21
2023-02-09T11:25:41.948Z,5.26
2023-02-09T11:28:46.824Z,5.32
2023-02-09T11:31:47.911Z,5.35
2023-02-09T11:35:09.953Z,5.41
2023-02-09T11:38:01.795Z,5.46
2023-02-09T11:40:35.429Z,5.53
2023-02-09T11:43:13.869Z,5.55
2023-02-09T11:45:48.440Z,5.62
2023-02-09T11:48:41.268Z,5.65
2023-02-09T11:51:12.177Z,5.71
2023-02-09T11:53:54.160Z,5.72
2023-02-09T11:56:24.286Z,5.77
2023-02-09T11:59:11.193Z,5.78
2023-02-09T12:01:52.849Z,5.82
2023-02-09T12:04:40.855Z,5.85
2023-02-09T12:07:55.367Z,5.84
2023-02-09T12:10:31.243Z,5.91
2023-02-09T12:13:13.141Z,5.96
2023-02-09T12:15:54.929Z,6.00
2023-02-09T12:18:27.076Z,6.03
2023-02-09T12:20:57.318Z,6.07
2023-02-09T12:23:33.126Z,6.09
2023-02-09T12:26:02.704Z,6.09
2023-02-09T12:28:32.638Z,6.14
2023-02-09T12:31:22.528Z,6.19
2023-02-09T12:33:49.417Z,6.18
2023-02-09T12:36:16.228Z,6.21
2023-02-09T12:38:56.333Z,6.29
2023-02-09T12:41:24.579Z,6.34
2023-02-09T12:44:25.197Z,6.31
2023-02-09T12:46:55.912Z,6.35
2023-02-09T12:49:29.157Z,6.38
2023-02-09T12:52:02.061Z,6.39
2023-02-09T12:54:52.665Z,6.42
2023-02-09T12:57:19.615Z,6.46
2023-02-09T13:00:03.622Z,6.47
2023-02-09T13:02:44.878Z,6.50
2023-02-09T13:05:28.200Z,6.50
2023-02-09T13:08:19.658Z,6.55
2023-02-09T13:11:03.500Z,6.52
2023-02-09T13:13:39.938Z,6.58
2023-02-09T13:16:32.804Z,6.56
2023-02-09T13:19:23.572Z,6.60
2023-02-09T13:22:19.006Z,6.58
2023-02-09T13:24:57.268Z,6.60
2023-02-09T13:27:26.435Z,6.65
2023-02-09T13:29:56.550Z,6.63
2023-02-09T13:32:54.158Z,6.65
2023-02-09T13:35:26.930Z,6.70
2023-02-09T13:37:59.338Z,6.73
2023-02-09T13:40:31.326Z,6.73
2023-02-09T13:43:06.693Z,6.75
2023-02-09T13:45:33.595Z,6.77
2023-02-09T13:48:02.892Z,6.77
2023-02-09T13:50:30.593Z,6.80
2023-02-09T13:53:11.434Z,6.80
2023-02-09T13:55:45.446Z,6.83
2023-02-09T13:58:32.793Z,6.83
2023-02-09T14:01:06.246Z,6.81
2023-02-09T14:03:57.121Z,6.84
2023-02-09T14:06:51.666Z,6.85
2023-02-09T14:09:24.707Z,6.83
2023-02-09T14:11:57.447Z,6.84
2023-02-09T14:14:54.749Z,6.82
2023-02-09T14:17:29.610Z,6.86
2023-02-09T14:19:59.130Z,6.86
2023-02-09T14:22:40.122Z,6.82
2023-02-09T14:25:13.080Z,6.90
2023-02-09T14:27:41.221Z,6.90
2023-02-09T14:30:26.221Z,6.87
2023-02-09T14:32:59.090Z,6.88
2023-02-09T14:35:31.420Z,6.90
2023-02-09T14:38:02.008Z,6.91
2023-02-09T14:40:34.401Z,6.89
2023-02-09T14:43:10.368Z,6.92
2023-02-09T14:45:43.498Z,6.85
2023-02-09T14:48:26.170Z,6.85
2023-02-09T14:50:59.863Z,6.89
2023-02-09T14:53:31.305Z,6.86
2023-02-09T14:55:59.081Z,6.85
2023-02-09T14:58:30.515Z,6.83
2023-02-09T15:01:01.258Z,6.82
2023-02-09T15:03:28.777Z,6.87
2023-02-09T15:05:59.730Z,6.86
2023-02-09T15:08:29.062Z,6.87
2023-02-09T15:11:01.791Z,6.84
2023-02-09T15:13:30.639Z,6.89
2023-02-09T15:15:57.634Z,6.86
2023-02-09T15:18:27.932Z,6.83
2023-02-09T15:20:54.936Z,6.85
2023-02-09T15:23:21.741Z,6.85
2023-02-09T15:25:48.859Z,6.83
2023-02-09T15:28:28.627Z,6.80
2023-02-09T15:30:58.376Z,6.80
2023-02-09T15:33:26.557Z,6.78
2023-02-09T15:35:53.554Z,6.74
2023-02-09T15:38:21.051Z,6.74
2023-02-09T15:41:08.843Z,6.70
2023-02-09T15:43:54.874Z,6.66
2023-02-09T15:46:40.628Z,6.61
2023-02-09T15:49:08.033Z,6.54
2023-02-09T15:51:38.550Z,6.53
2023-02-09T15:54:13.060Z,6.48
2023-02-09T15:56:40.068Z,6.42
2023-02-09T15:59:06.989Z,6.40
2023-02-09T16:01:34.784Z,6.36
2023-02-09T16:04:13.458Z,6.34
2023-02-09T16:06:47.348Z,6.28
2023-02-09T16:09:26.905Z,6.23
2023-02-09T16:11:53.958Z,6.17
2023-02-09T16:14:24.228Z,6.10
2023-02-09T16:16:51.588Z,6.05
2023-02-09T16:19:19.684Z,6.00
2023-02-09T16:21:56.393Z,5.93
2023-02-09T16:24:42.257Z,5.90
2023-02-09T16:27:21.822Z,5.83
2023-02-09T16:29:49.015Z,5.80
2023-02-09T16:32:24.869Z,5.72
2023-02-09T16:34:52.093Z,5.66
2023-02-09T16:37:29.367Z,5.61
2023-02-09T16:39:58.432Z,5.56
2023-02-09T16:42:25.630Z,5.52
2023-02-09T16:44:53.059Z,5.47
2023-02-09T16:47:27.287Z,5.42
2023-02-09T16:50:05.119Z,5.37
2023-02-09T16:52:32.511Z,5.35
2023-02-09T16:55:14.610Z,5.33
2023-02-09T16:57:41.402Z,5.28
2023-02-09T17:00:09.460Z,5.23
2023-02-09T17:02:44.114Z,5.18
2023-02-09T17:05:25.150Z,5.13
2023-02-09T17:07:59.434Z,5.07
2023-02-09T17:10:31.412Z,5.02
2023-02-09T17:12:58.811Z,4.94
2023-02-09T17:15:30.972Z,4.90
2023-02-09T17:18:04.826Z,4.81
2023-02-09T17:20:46.622Z,4.73
2023-02-09T17:23:20.939Z,4.65
2023-02-09T17:25:51.233Z,4.61
2023-02-09T17:28:21.388Z,4.59
2023-02-09T17:30:49.798Z,4.58
2023-02-09T17:33:25.282Z,4.57
2023-02-09T17:36:23.682Z,4.54
2023-02-09T17:38:41.641Z,4.56
2023-02-09T17:41:33.275Z,4.55
2023-02-09T17:44:31.931Z,4.49
2023-02-09T17:47:06.394Z,4.58
2023-02-09T17:49:34.328Z,4.64
2023-02-09T17:52:01.204Z,4.66
2023-02-09T17:54:28.074Z,4.68
2023-02-09T17:56:55.252Z,4.72
2023-02-09T17:59:22.074Z,4.78
2023-02-09T18:01:50.517Z,4.81
2023-02-09T18:04:26.895Z,4.81
2023-02-09T18:06:55.505Z,4.82
2023-02-09T18:09:23.425Z,4.82
2023-02-09T18:12:19.396Z,4.78
2023-02-09T18:14:46.533Z,4.82
2023-02-09T18:17:13.336Z,4.80
2023-02-09T18:19:40.148Z,4.76
2023-02-09T18:22:07.525Z,4.73
2023-02-09T18:24:35.541Z,4.72
2023-02-09T18:27:02.909Z,4.65
2023-02-09T18:29:30.264Z,4.61
2023-02-09T18:32:02.695Z,4.54
2023-02-09T18:34:30.278Z,4.48
2023-02-09T18:36:57.506Z,4.42
2023-02-09T18:39:24.566Z,4.36
2023-02-09T18:41:55.226Z,4.32
2023-02-09T18:44:29.406Z,4.28
2023-02-09T18:47:00.533Z,4.25
2023-02-09T18:49:28.107Z,4.23
2023-02-09T18:51:57.067Z,4.20
2023-02-09T18:54:24.061Z,4.16
2023-02-09T18:56:52.888Z,4.15
2023-02-09T18:59:20.051Z,4.14
2023-02-09T19:01:46.978Z,4.16
2023-02-09T19:04:14.034Z,4.17
2023-02-09T19:06:40.916Z,4.15
2023-02-09T19:09:07.777Z,4.13
2023-02-09T19:11:34.641Z,4.09
2023-02-09T19:14:19.939Z,4.06
2023-02-09T19:16:46.697Z,4.00
2023-02-09T19:19:13.566Z,3.99
2023-02-09T19:21:40.326Z,3.96
2023-02-09T19:24:07.228Z,3.89
2023-02-09T19:26:34.293Z,3.87
2023-02-09T19:29:01.131Z,3.81
2023-02-09T19:31:28.066Z,3.78
2023-02-09T19:33:56.707Z,3.73
2023-02-09T19:36:24.635Z,3.69
2023-02-09T19:38:51.447Z,3.65
2023-02-09T19:41:18.522Z,3.61
2023-02-09T19:43:45.429Z,3.60
2023-02-09T19:46:12.276Z,3.58
2023-02-09T19:48:40.428Z,3.56
2023-02-09T19:51:08.306Z,3.55
2023-02-09T19:53:35.620Z,3.53
2023-02-09T19:56:02.470Z,3.53
2023-02-09T19:58:29.815Z,3.50
2023-02-09T20:00:57.099Z,3.51
2023-02-09T20:03:24.910Z,3.49
2023-02-09T20:05:52.209Z,3.49
2023-02-09T20:08:20.569Z,3.45
2023-02-09T20:10:47.876Z,3.42
2023-02-09T20:13:15.672Z,3.41
2023-02-09T20:15:44.626Z,3.39
2023-02-09T20:18:13.532Z,3.35
2023-02-09T20:20:43.394Z,3.31
2023-02-09T20:23:10.764Z,3.29
2023-02-09T20:25:44.037Z,3.25
2023-02-09T20:28:14.025Z,3.20
2023-02-09T20:30:46.710Z,3.19
2023-02-09T20:33:14.788Z,3.15
2023-02-09T20:35:43.254Z,3.12
2023-02-09T20:38:11.045Z,3.07
2023-02-09T20:40:38.138Z,3.05
2023-02-09T20:43:23.458Z,2.98
2023-02-09T20:46:09.016Z,2.95
2023-02-09T20:48:35.923Z,2.88
2023-02-09T20:51:04.024Z,2.84
2023-02-09T20:53:32.182Z,2.79
2023-02-09T20:55:59.385Z,2.74
2023-02-09T20:58:26.394Z,2.67
2023-02-09T21:00:53.472Z,2.63
2023-02-09T21:03:20.909Z,2.60
2023-02-09T21:05:47.771Z,2.55
2023-02-09T21:08:14.529Z,2.51
2023-02-09T21:10:41.421Z,2.48
2023-02-09T21:13:10.241Z,2.45
2023-02-09T21:15:42.049Z,2.42
2023-02-09T21:18:09.133Z,2.40
2023-02-09T21:20:36.033Z,2.39
2023-02-09T21:23:03.154Z,2.38
2023-02-09T21:25:30.726Z,2.38
2023-02-09T21:27:59.798Z,2.39
2023-02-09T21:30:27.684Z,2.38
2023-02-09T21:32:56.149Z,2.38
2023-02-09T21:35:24.262Z,2.37
2023-02-09T21:37:51.015Z,2.37
2023-02-09T21:40:20.543Z,2.39
2023-02-09T21:42:49.331Z,2.37
2023-02-09T21:45:16.259Z,2.36
2023-02-09T21:47:43.199Z,2.37
2023-02-09T21:50:12.107Z,2.36
2023-02-09T21:52:38.993Z,2.34
2023-02-09T21:55:08.359Z,2.33
2023-02-09T21:57:36.299Z,2.33
2023-02-09T22:00:05.596Z,2.34
2023-02-09T22:02:32.634Z,2.33
2023-02-09T22:04:59.664Z,2.35
2023-02-09T22:07:26.762Z,2.33
2023-02-09T22:09:54.042Z,2.33
2023-02-09T22:12:20.918Z,2.31
2023-02-09T22:14:47.739Z,2.32
2023-02-09T22:17:14.676Z,2.33
2023-02-09T22:19:41.538Z,2.35
2023-02-09T22:22:08.383Z,2.34
2023-02-09T22:24:35.289Z,2.34
2023-02-09T22:27:03.695Z,2.36
2023-02-09T22:29:33.356Z,2.34
2023-02-09T22:32:00.325Z,2.33
2023-02-09T22:34:27.260Z,2.32
2023-02-09T22:36:54.333Z,2.33
2023-02-09T22:39:21.862Z,2.33
2023-02-09T22:41:48.929Z,2.32
2023-02-09T22:44:17.811Z,2.31
2023-02-09T22:46:45.657Z,2.32
2023-02-09T22:49:20.212Z,2.29
2023-02-09T22:51:50.059Z,2.25
2023-02-09T22:54:19.265Z,2.24
2023-02-09T22:56:46.844Z,2.21
2023-02-09T22:59:15.236Z,2.17
2023-02-09T23:01:43.247Z,2.13
2023-02-09T23:04:10.716Z,2.10
2023-02-09T23:06:37.563Z,2.09
2023-02-09T23:09:07.843Z,2.08
2023-02-09T23:11:35.296Z,2.02
2023-02-09T23:14:11.143Z,1.99
2023-02-09T23:16:40.802Z,1.93
2023-02-09T23:19:13.105Z,1.89
2023-02-09T23:21:44.044Z,1.85
2023-02-09T23:24:12.388Z,1.80
2023-02-09T23:26:39.594Z,1.73
2023-02-09T23:29:10.489Z,1.69
2023-02-09T23:31:37.800Z,1.64
2023-02-09T23:34:04.897Z,1.57
2023-02-09T23:36:33.352Z,1.51
2023-02-09T23:39:04.715Z,1.46
2023-02-09T23:41:31.886Z,1.39
2023-02-09T23:43:59.486Z,1.32
2023-02-09T23:46:28.996Z,1.26
2023-02-09T23:48:56.723Z,1.21
2023-02-09T23:51:29.858Z,1.15
2023-02-09T23:54:00.376Z,1.09
2023-02-09T23:56:28.531Z,1.04
2023-02-09T23:58:55.833Z,0.98
